sensor_id;sensor_type;location;lat;lon;timestamp;P1;durP1;ratioP1;P2;durP2;ratioP2
70549;SDS011;58101;48.658;2.328;2023-04-15T00:01:03;13.18;;;5.32;;
70549;SDS011;58101;48.658;2.328;2023-04-15T00:03:30;11.52;;;5.20;;
70549;SDS011;58101;48.658;2.328;2023-04-15T00:05:56;11.55;;;5.30;;
70549;SDS011;58101;48.658;2.328;2023-04-15T00:08:22;12.88;;;5.47;;
70549;SDS011;58101;48.658;2.328;2023-04-15T00:10:48;13.15;;;5.00;;
70549;SDS011;58101;48.658;2.328;2023-04-15T00:13:14;13.82;;;5.50;;
70549;SDS011;58101;48.658;2.328;2023-04-15T00:15:40;10.43;;;4.72;;
70549;SDS011;58101;48.658;2.328;2023-04-15T00:18:07;11.07;;;4.78;;
70549;SDS011;58101;48.658;2.328;2023-04-15T00:20:33;12.73;;;5.30;;
70549;SDS011;58101;48.658;2.328;2023-04-15T00:23:00;14.35;;;5.43;;
70549;SDS011;58101;48.658;2.328;2023-04-15T00:25:27;12.07;;;5.50;;
70549;SDS011;58101;48.658;2.328;2023-04-15T00:27:53;11.48;;;5.10;;
70549;SDS011;58101;48.658;2.328;2023-04-15T00:30:19;12.00;;;5.07;;
70549;SDS011;58101;48.658;2.328;2023-04-15T00:32:45;11.05;;;5.13;;
70549;SDS011;58101;48.658;2.328;2023-04-15T00:35:11;12.43;;;5.13;;
70549;SDS011;58101;48.658;2.328;2023-04-15T00:37:36;11.13;;;5.05;;
70549;SDS011;58101;48.658;2.328;2023-04-15T00:40:02;12.63;;;5.45;;
70549;SDS011;58101;48.658;2.328;2023-04-15T00:42:30;10.95;;;5.07;;
70549;SDS011;58101;48.658;2.328;2023-04-15T00:44:56;12.70;;;5.20;;
70549;SDS011;58101;48.658;2.328;2023-04-15T00:47:21;10.82;;;4.68;;
70549;SDS011;58101;48.658;2.328;2023-04-15T00:49:47;10.63;;;4.82;;
70549;SDS011;58101;48.658;2.328;2023-04-15T00:52:13;12.38;;;4.72;;
70549;SDS011;58101;48.658;2.328;2023-04-15T00:54:38;13.30;;;4.57;;
70549;SDS011;58101;48.658;2.328;2023-04-15T00:57:05;13.45;;;5.00;;
70549;SDS011;58101;48.658;2.328;2023-04-15T01:01:57;10.60;;;4.07;;
70549;SDS011;58101;48.658;2.328;2023-04-15T01:04:23;11.48;;;4.50;;
70549;SDS011;58101;48.658;2.328;2023-04-15T01:06:49;11.20;;;4.68;;
70549;SDS011;58101;48.658;2.328;2023-04-15T01:09:15;11.50;;;4.68;;
70549;SDS011;58101;48.658;2.328;2023-04-15T01:11:41;10.65;;;4.40;;
70549;SDS011;58101;48.658;2.328;2023-04-15T01:14:07;11.68;;;5.05;;
70549;SDS011;58101;48.658;2.328;2023-04-15T01:16:35;9.40;;;4.55;;
70549;SDS011;58101;48.658;2.328;2023-04-15T01:19:04;10.57;;;4.72;;
70549;SDS011;58101;48.658;2.328;2023-04-15T01:21:35;10.98;;;4.82;;
70549;SDS011;58101;48.658;2.328;2023-04-15T01:24:05;12.45;;;5.32;;
70549;SDS011;58101;48.658;2.328;2023-04-15T01:26:35;10.98;;;4.60;;
70549;SDS011;58101;48.658;2.328;2023-04-15T01:29:02;10.52;;;4.80;;
70549;SDS011;58101;48.658;2.328;2023-04-15T01:31:28;11.88;;;4.68;;
70549;SDS011;58101;48.658;2.328;2023-04-15T01:33:53;9.77;;;4.43;;
70549;SDS011;58101;48.658;2.328;2023-04-15T01:36:19;9.82;;;4.35;;
70549;SDS011;58101;48.658;2.328;2023-04-15T01:38:44;10.10;;;4.38;;
70549;SDS011;58101;48.658;2.328;2023-04-15T01:41:12;10.50;;;4.60;;
70549;SDS011;58101;48.658;2.328;2023-04-15T01:43:38;13.32;;;5.47;;
70549;SDS011;58101;48.658;2.328;2023-04-15T01:46:04;13.02;;;5.32;;
70549;SDS011;58101;48.658;2.328;2023-04-15T01:48:30;16.42;;;5.50;;
70549;SDS011;58101;48.658;2.328;2023-04-15T01:50:56;16.55;;;6.15;;
70549;SDS011;58101;48.658;2.328;2023-04-15T01:53:25;13.18;;;5.60;;
70549;SDS011;58101;48.658;2.328;2023-04-15T01:55:51;18.13;;;6.10;;
70549;SDS011;58101;48.658;2.328;2023-04-15T01:58:17;13.82;;;5.53;;
70549;SDS011;58101;48.658;2.328;2023-04-15T02:00:43;8.82;;;4.10;;
70549;SDS011;58101;48.658;2.328;2023-04-15T02:03:09;8.45;;;3.75;;
70549;SDS011;58101;48.658;2.328;2023-04-15T02:05:35;9.75;;;3.70;;
70549;SDS011;58101;48.658;2.328;2023-04-15T02:08:01;6.10;;;2.28;;
70549;SDS011;58101;48.658;2.328;2023-04-15T02:10:27;6.63;;;2.30;;
70549;SDS011;58101;48.658;2.328;2023-04-15T02:12:53;6.15;;;1.90;;
70549;SDS011;58101;48.658;2.328;2023-04-15T02:15:18;5.20;;;1.50;;
70549;SDS011;58101;48.658;2.328;2023-04-15T02:17:44;5.10;;;1.40;;
70549;SDS011;58101;48.658;2.328;2023-04-15T02:20:14;4.82;;;1.30;;
70549;SDS011;58101;48.658;2.328;2023-04-15T02:22:45;4.65;;;1.30;;
70549;SDS011;58101;48.658;2.328;2023-04-15T02:25:12;4.25;;;1.20;;
70549;SDS011;58101;48.658;2.328;2023-04-15T02:27:38;4.65;;;1.13;;
70549;SDS011;58101;48.658;2.328;2023-04-15T02:30:03;4.68;;;1.27;;
70549;SDS011;58101;48.658;2.328;2023-04-15T02:32:31;4.55;;;1.20;;
70549;SDS011;58101;48.658;2.328;2023-04-15T02:35:00;3.92;;;1.20;;
70549;SDS011;58101;48.658;2.328;2023-04-15T02:37:28;3.60;;;1.10;;
70549;SDS011;58101;48.658;2.328;2023-04-15T02:39:55;5.22;;;1.30;;
70549;SDS011;58101;48.658;2.328;2023-04-15T02:42:21;4.63;;;1.33;;
70549;SDS011;58101;48.658;2.328;2023-04-15T02:44:46;4.32;;;1.10;;
70549;SDS011;58101;48.658;2.328;2023-04-15T02:47:12;4.35;;;1.10;;
70549;SDS011;58101;48.658;2.328;2023-04-15T02:49:38;5.25;;;1.15;;
70549;SDS011;58101;48.658;2.328;2023-04-15T02:52:04;4.75;;;1.20;;
70549;SDS011;58101;48.658;2.328;2023-04-15T02:54:31;4.18;;;1.20;;
70549;SDS011;58101;48.658;2.328;2023-04-15T02:59:23;5.28;;;1.55;;
70549;SDS011;58101;48.658;2.328;2023-04-15T03:01:49;5.07;;;1.33;;
70549;SDS011;58101;48.658;2.328;2023-04-15T03:04:15;6.22;;;1.33;;
70549;SDS011;58101;48.658;2.328;2023-04-15T03:06:40;5.20;;;1.27;;
70549;SDS011;58101;48.658;2.328;2023-04-15T03:09:06;5.03;;;1.30;;
70549;SDS011;58101;48.658;2.328;2023-04-15T03:11:32;4.57;;;1.23;;
70549;SDS011;58101;48.658;2.328;2023-04-15T03:13:59;5.20;;;1.40;;
70549;SDS011;58101;48.658;2.328;2023-04-15T03:16:25;5.22;;;1.50;;
70549;SDS011;58101;48.658;2.328;2023-04-15T03:18:51;4.10;;;1.08;;
70549;SDS011;58101;48.658;2.328;2023-04-15T03:21:19;5.97;;;1.50;;
70549;SDS011;58101;48.658;2.328;2023-04-15T03:23:45;6.22;;;1.40;;
70549;SDS011;58101;48.658;2.328;2023-04-15T03:26:26;4.93;;;1.40;;
70549;SDS011;58101;48.658;2.328;2023-04-15T03:28:53;5.55;;;1.50;;
70549;SDS011;58101;48.658;2.328;2023-04-15T03:31:19;4.47;;;1.30;;
70549;SDS011;58101;48.658;2.328;2023-04-15T03:33:45;6.82;;;1.55;;
70549;SDS011;58101;48.658;2.328;2023-04-15T03:36:10;7.03;;;1.80;;
70549;SDS011;58101;48.658;2.328;2023-04-15T03:38:36;6.30;;;1.40;;
70549;SDS011;58101;48.658;2.328;2023-04-15T03:41:02;7.18;;;1.35;;
70549;SDS011;58101;48.658;2.328;2023-04-15T03:43:27;7.32;;;1.50;;
70549;SDS011;58101;48.658;2.328;2023-04-15T03:45:53;5.75;;;1.38;;
70549;SDS011;58101;48.658;2.328;2023-04-15T03:48:18;5.45;;;1.40;;
70549;SDS011;58101;48.658;2.328;2023-04-15T03:50:44;6.05;;;1.30;;
70549;SDS011;58101;48.658;2.328;2023-04-15T03:53:10;6.72;;;1.48;;
70549;SDS011;58101;48.658;2.328;2023-04-15T03:55:36;5.60;;;1.40;;
70549;SDS011;58101;48.658;2.328;2023-04-15T03:58:01;6.95;;;1.50;;
70549;SDS011;58101;48.658;2.328;2023-04-15T04:00:27;6.97;;;1.48;;
70549;SDS011;58101;48.658;2.328;2023-04-15T04:02:53;8.93;;;1.77;;
70549;SDS011;58101;48.658;2.328;2023-04-15T04:05:18;7.10;;;1.70;;
70549;SDS011;58101;48.658;2.328;2023-04-15T04:07:44;6.22;;;1.55;;
70549;SDS011;58101;48.658;2.328;2023-04-15T04:10:09;5.20;;;1.50;;
70549;SDS011;58101;48.658;2.328;2023-04-15T04:12:35;6.90;;;1.40;;
70549;SDS011;58101;48.658;2.328;2023-04-15T04:15:01;7.10;;;1.50;;
70549;SDS011;58101;48.658;2.328;2023-04-15T04:17:27;6.18;;;1.40;;
70549;SDS011;58101;48.658;2.328;2023-04-15T04:19:53;7.95;;;1.50;;
70549;SDS011;58101;48.658;2.328;2023-04-15T04:22:21;7.75;;;1.50;;
70549;SDS011;58101;48.658;2.328;2023-04-15T04:24:48;5.18;;;1.30;;
70549;SDS011;58101;48.658;2.328;2023-04-15T04:27:13;4.97;;;1.20;;
70549;SDS011;58101;48.658;2.328;2023-04-15T04:29:39;4.00;;;1.02;;
70549;SDS011;58101;48.658;2.328;2023-04-15T04:32:05;4.00;;;1.00;;
70549;SDS011;58101;48.658;2.328;2023-04-15T04:34:31;6.20;;;1.00;;
70549;SDS011;58101;48.658;2.328;2023-04-15T04:36:57;3.55;;;0.90;;
70549;SDS011;58101;48.658;2.328;2023-04-15T04:39:22;5.28;;;1.02;;
70549;SDS011;58101;48.658;2.328;2023-04-15T04:41:48;4.32;;;1.08;;
70549;SDS011;58101;48.658;2.328;2023-04-15T04:44:14;4.00;;;0.95;;
70549;SDS011;58101;48.658;2.328;2023-04-15T04:46:40;4.00;;;1.10;;
70549;SDS011;58101;48.658;2.328;2023-04-15T04:49:05;4.43;;;1.02;;
70549;SDS011;58101;48.658;2.328;2023-04-15T04:51:31;4.05;;;0.90;;
70549;SDS011;58101;48.658;2.328;2023-04-15T04:53:57;2.17;;;0.77;;
70549;SDS011;58101;48.658;2.328;2023-04-15T04:56:22;2.95;;;0.88;;
70549;SDS011;58101;48.658;2.328;2023-04-15T04:58:48;4.07;;;0.85;;
70549;SDS011;58101;48.658;2.328;2023-04-15T05:01:14;3.28;;;0.80;;
70549;SDS011;58101;48.658;2.328;2023-04-15T05:03:39;2.50;;;0.80;;
70549;SDS011;58101;48.658;2.328;2023-04-15T05:06:05;5.75;;;1.13;;
70549;SDS011;58101;48.658;2.328;2023-04-15T05:08:32;3.58;;;0.98;;
70549;SDS011;58101;48.658;2.328;2023-04-15T05:10:58;4.60;;;1.00;;
70549;SDS011;58101;48.658;2.328;2023-04-15T05:13:24;3.63;;;1.00;;
70549;SDS011;58101;48.658;2.328;2023-04-15T05:15:50;3.97;;;0.93;;
70549;SDS011;58101;48.658;2.328;2023-04-15T05:18:15;4.40;;;0.95;;
70549;SDS011;58101;48.658;2.328;2023-04-15T05:20:41;5.03;;;1.10;;
70549;SDS011;58101;48.658;2.328;2023-04-15T05:23:07;3.65;;;0.90;;
70549;SDS011;58101;48.658;2.328;2023-04-15T05:25:32;6.47;;;1.10;;
70549;SDS011;58101;48.658;2.328;2023-04-15T05:27:58;3.97;;;1.00;;
70549;SDS011;58101;48.658;2.328;2023-04-15T05:30:24;4.07;;;1.13;;
70549;SDS011;58101;48.658;2.328;2023-04-15T05:32:50;4.18;;;1.00;;
70549;SDS011;58101;48.658;2.328;2023-04-15T05:35:16;3.60;;;1.00;;
70549;SDS011;58101;48.658;2.328;2023-04-15T05:37:42;5.03;;;1.00;;
70549;SDS011;58101;48.658;2.328;2023-04-15T05:40:07;3.63;;;1.00;;
70549;SDS011;58101;48.658;2.328;2023-04-15T05:45:00;4.68;;;1.00;;
70549;SDS011;58101;48.658;2.328;2023-04-15T05:47:29;3.53;;;1.00;;
70549;SDS011;58101;48.658;2.328;2023-04-15T05:49:55;3.72;;;0.90;;
70549;SDS011;58101;48.658;2.328;2023-04-15T05:52:22;6.00;;;1.02;;
70549;SDS011;58101;48.658;2.328;2023-04-15T05:54:48;4.70;;;1.20;;
70549;SDS011;58101;48.658;2.328;2023-04-15T05:57:14;4.93;;;1.13;;
70549;SDS011;58101;48.658;2.328;2023-04-15T05:59:40;5.00;;;1.30;;
70549;SDS011;58101;48.658;2.328;2023-04-15T06:02:06;4.72;;;1.40;;
70549;SDS011;58101;48.658;2.328;2023-04-15T06:04:33;5.78;;;1.50;;
70549;SDS011;58101;48.658;2.328;2023-04-15T06:06:59;5.18;;;1.60;;
70549;SDS011;58101;48.658;2.328;2023-04-15T06:11:52;4.95;;;1.40;;
70549;SDS011;58101;48.658;2.328;2023-04-15T06:14:18;6.10;;;1.55;;
70549;SDS011;58101;48.658;2.328;2023-04-15T06:16:44;4.95;;;1.48;;
70549;SDS011;58101;48.658;2.328;2023-04-15T06:19:10;5.40;;;1.48;;
70549;SDS011;58101;48.658;2.328;2023-04-15T06:21:36;5.40;;;1.42;;
70549;SDS011;58101;48.658;2.328;2023-04-15T06:24:02;7.38;;;1.30;;
70549;SDS011;58101;48.658;2.328;2023-04-15T06:26:28;4.68;;;1.23;;
70549;SDS011;58101;48.658;2.328;2023-04-15T06:28:53;3.97;;;1.20;;
70549;SDS011;58101;48.658;2.328;2023-04-15T06:31:19;5.25;;;1.10;;
70549;SDS011;58101;48.658;2.328;2023-04-15T06:33:45;5.00;;;1.40;;
70549;SDS011;58101;48.658;2.328;2023-04-15T06:36:11;4.25;;;1.10;;
70549;SDS011;58101;48.658;2.328;2023-04-15T06:38:36;4.78;;;1.27;;
70549;SDS011;58101;48.658;2.328;2023-04-15T06:41:02;5.03;;;1.30;;
70549;SDS011;58101;48.658;2.328;2023-04-15T06:43:28;4.28;;;1.10;;
70549;SDS011;58101;48.658;2.328;2023-04-15T06:45:54;3.85;;;1.10;;
70549;SDS011;58101;48.658;2.328;2023-04-15T06:48:21;4.75;;;1.10;;
70549;SDS011;58101;48.658;2.328;2023-04-15T06:50:47;3.47;;;1.00;;
70549;SDS011;58101;48.658;2.328;2023-04-15T06:53:13;3.92;;;0.90;;
70549;SDS011;58101;48.658;2.328;2023-04-15T06:55:39;3.15;;;0.90;;
70549;SDS011;58101;48.658;2.328;2023-04-15T06:58:05;3.65;;;0.90;;
70549;SDS011;58101;48.658;2.328;2023-04-15T07:00:31;3.65;;;0.85;;
70549;SDS011;58101;48.658;2.328;2023-04-15T07:02:58;3.65;;;0.80;;
70549;SDS011;58101;48.658;2.328;2023-04-15T07:05:27;4.40;;;0.77;;
70549;SDS011;58101;48.658;2.328;2023-04-15T07:07:53;3.30;;;0.80;;
70549;SDS011;58101;48.658;2.328;2023-04-15T07:10:19;4.20;;;0.90;;
70549;SDS011;58101;48.658;2.328;2023-04-15T07:12:45;3.55;;;0.90;;
70549;SDS011;58101;48.658;2.328;2023-04-15T07:15:12;4.60;;;1.02;;
70549;SDS011;58101;48.658;2.328;2023-04-15T07:17:38;4.05;;;0.82;;
70549;SDS011;58101;48.658;2.328;2023-04-15T07:20:05;3.03;;;0.75;;
70549;SDS011;58101;48.658;2.328;2023-04-15T07:22:31;3.38;;;0.90;;
70549;SDS011;58101;48.658;2.328;2023-04-15T07:24:57;2.80;;;0.80;;
70549;SDS011;58101;48.658;2.328;2023-04-15T07:27:23;2.95;;;0.90;;
70549;SDS011;58101;48.658;2.328;2023-04-15T07:29:58;4.25;;;1.10;;
70549;SDS011;58101;48.658;2.328;2023-04-15T07:32:24;5.68;;;0.85;;
70549;SDS011;58101;48.658;2.328;2023-04-15T07:34:50;4.53;;;0.90;;
70549;SDS011;58101;48.658;2.328;2023-04-15T07:37:15;3.67;;;0.90;;
70549;SDS011;58101;48.658;2.328;2023-04-15T07:39:41;5.18;;;1.00;;
70549;SDS011;58101;48.658;2.328;2023-04-15T07:42:07;4.68;;;1.00;;
70549;SDS011;58101;48.658;2.328;2023-04-15T07:44:33;2.25;;;0.75;;
70549;SDS011;58101;48.658;2.328;2023-04-15T07:46:59;3.72;;;1.00;;
70549;SDS011;58101;48.658;2.328;2023-04-15T07:49:32;4.35;;;1.10;;
70549;SDS011;58101;48.658;2.328;2023-04-15T07:51:57;3.38;;;1.00;;
70549;SDS011;58101;48.658;2.328;2023-04-15T07:54:24;3.75;;;0.93;;
70549;SDS011;58101;48.658;2.328;2023-04-15T07:56:49;4.35;;;1.10;;
70549;SDS011;58101;48.658;2.328;2023-04-15T07:59:16;4.32;;;1.20;;
70549;SDS011;58101;48.658;2.328;2023-04-15T08:01:42;3.80;;;1.00;;
70549;SDS011;58101;48.658;2.328;2023-04-15T08:04:09;3.97;;;1.08;;
70549;SDS011;58101;48.658;2.328;2023-04-15T08:06:34;5.07;;;1.20;;
70549;SDS011;58101;48.658;2.328;2023-04-15T08:09:01;4.50;;;1.20;;
70549;SDS011;58101;48.658;2.328;2023-04-15T08:11:26;4.15;;;1.10;;
70549;SDS011;58101;48.658;2.328;2023-04-15T08:13:52;3.90;;;1.02;;
70549;SDS011;58101;48.658;2.328;2023-04-15T08:21:11;6.45;;;1.63;;
70549;SDS011;58101;48.658;2.328;2023-04-15T08:23:37;5.32;;;1.27;;
70549;SDS011;58101;48.658;2.328;2023-04-15T08:26:03;6.30;;;1.30;;
70549;SDS011;58101;48.658;2.328;2023-04-15T08:28:29;5.13;;;1.35;;
70549;SDS011;58101;48.658;2.328;2023-04-15T08:30:57;6.35;;;1.65;;
70549;SDS011;58101;48.658;2.328;2023-04-15T08:33:29;7.55;;;1.83;;
70549;SDS011;58101;48.658;2.328;2023-04-15T08:35:55;7.55;;;1.80;;
70549;SDS011;58101;48.658;2.328;2023-04-15T08:38:21;6.22;;;1.75;;
70549;SDS011;58101;48.658;2.328;2023-04-15T08:40:47;5.65;;;1.70;;
70549;SDS011;58101;48.658;2.328;2023-04-15T08:43:34;6.05;;;1.85;;
70549;SDS011;58101;48.658;2.328;2023-04-15T08:46:06;8.88;;;2.08;;
70549;SDS011;58101;48.658;2.328;2023-04-15T08:48:33;5.85;;;1.80;;
70549;SDS011;58101;48.658;2.328;2023-04-15T08:51:02;8.07;;;2.00;;
70549;SDS011;58101;48.658;2.328;2023-04-15T08:53:29;6.50;;;1.70;;
70549;SDS011;58101;48.658;2.328;2023-04-15T08:55:55;6.82;;;2.13;;
70549;SDS011;58101;48.658;2.328;2023-04-15T08:58:22;6.35;;;1.60;;
70549;SDS011;58101;48.658;2.328;2023-04-15T09:00:51;6.20;;;1.75;;
70549;SDS011;58101;48.658;2.328;2023-04-15T09:03:17;4.63;;;1.30;;
70549;SDS011;58101;48.658;2.328;2023-04-15T09:05:45;4.60;;;1.40;;
70549;SDS011;58101;48.658;2.328;2023-04-15T09:08:12;4.97;;;1.30;;
70549;SDS011;58101;48.658;2.328;2023-04-15T09:10:37;4.95;;;1.50;;
70549;SDS011;58101;48.658;2.328;2023-04-15T09:13:03;5.88;;;1.30;;
70549;SDS011;58101;48.658;2.328;2023-04-15T09:15:28;6.15;;;1.80;;
70549;SDS011;58101;48.658;2.328;2023-04-15T09:17:56;4.88;;;1.30;;
70549;SDS011;58101;48.658;2.328;2023-04-15T09:20:22;4.10;;;1.10;;
70549;SDS011;58101;48.658;2.328;2023-04-15T09:22:48;4.20;;;1.13;;
70549;SDS011;58101;48.658;2.328;2023-04-15T09:27:51;5.47;;;1.10;;
70549;SDS011;58101;48.658;2.328;2023-04-15T09:30:26;5.22;;;1.30;;
70549;SDS011;58101;48.658;2.328;2023-04-15T09:32:53;5.43;;;1.20;;
70549;SDS011;58101;48.658;2.328;2023-04-15T09:35:21;5.80;;;1.30;;
70549;SDS011;58101;48.658;2.328;2023-04-15T09:37:48;4.22;;;1.20;;
70549;SDS011;58101;48.658;2.328;2023-04-15T09:40:14;4.63;;;1.35;;
70549;SDS011;58101;48.658;2.328;2023-04-15T09:43:02;5.18;;;1.38;;
70549;SDS011;58101;48.658;2.328;2023-04-15T09:45:29;4.15;;;1.20;;
70549;SDS011;58101;48.658;2.328;2023-04-15T09:47:56;5.07;;;1.20;;
70549;SDS011;58101;48.658;2.328;2023-04-15T09:50:41;4.40;;;1.20;;
70549;SDS011;58101;48.658;2.328;2023-04-15T09:53:08;5.88;;;1.30;;
70549;SDS011;58101;48.658;2.328;2023-04-15T10:00:47;4.53;;;1.27;;
70549;SDS011;58101;48.658;2.328;2023-04-15T10:06:00;6.13;;;1.50;;
70549;SDS011;58101;48.658;2.328;2023-04-15T10:08:29;4.72;;;1.42;;
70549;SDS011;58101;48.658;2.328;2023-04-15T10:10:57;6.05;;;1.60;;
70549;SDS011;58101;48.658;2.328;2023-04-15T10:13:25;6.13;;;1.40;;
70549;SDS011;58101;48.658;2.328;2023-04-15T10:18:46;4.50;;;1.40;;
70549;SDS011;58101;48.658;2.328;2023-04-15T10:21:15;5.57;;;1.30;;
70549;SDS011;58101;48.658;2.328;2023-04-15T10:23:45;4.82;;;1.40;;
70549;SDS011;58101;48.658;2.328;2023-04-15T10:26:11;5.75;;;1.40;;
70549;SDS011;58101;48.658;2.328;2023-04-15T10:28:39;4.15;;;1.30;;
70549;SDS011;58101;48.658;2.328;2023-04-15T10:33:31;4.63;;;1.20;;
70549;SDS011;58101;48.658;2.328;2023-04-15T10:35:59;4.25;;;1.13;;
70549;SDS011;58101;48.658;2.328;2023-04-15T10:38:32;5.65;;;1.38;;
70549;SDS011;58101;48.658;2.328;2023-04-15T10:41:12;4.50;;;1.30;;
70549;SDS011;58101;48.658;2.328;2023-04-15T10:44:00;4.25;;;1.30;;
70549;SDS011;58101;48.658;2.328;2023-04-15T10:46:34;5.68;;;1.50;;
70549;SDS011;58101;48.658;2.328;2023-04-15T10:49:10;4.18;;;1.15;;
70549;SDS011;58101;48.658;2.328;2023-04-15T10:51:37;3.42;;;1.13;;
70549;SDS011;58101;48.658;2.328;2023-04-15T10:54:12;4.82;;;1.20;;
70549;SDS011;58101;48.658;2.328;2023-04-15T10:59:29;4.30;;;1.08;;
70549;SDS011;58101;48.658;2.328;2023-04-15T11:01:57;4.88;;;1.30;;
70549;SDS011;58101;48.658;2.328;2023-04-15T11:07:35;4.90;;;1.10;;
70549;SDS011;58101;48.658;2.328;2023-04-15T11:10:03;4.10;;;1.10;;
70549;SDS011;58101;48.658;2.328;2023-04-15T11:12:38;3.78;;;1.00;;
70549;SDS011;58101;48.658;2.328;2023-04-15T11:17:53;4.15;;;1.02;;
70549;SDS011;58101;48.658;2.328;2023-04-15T11:20:19;3.90;;;1.10;;
70549;SDS011;58101;48.658;2.328;2023-04-15T11:22:46;4.70;;;1.25;;
70549;SDS011;58101;48.658;2.328;2023-04-15T11:25:48;4.38;;;1.13;;
70549;SDS011;58101;48.658;2.328;2023-04-15T11:28:07;4.53;;;1.10;;
70549;SDS011;58101;48.658;2.328;2023-04-15T11:30:34;4.97;;;1.30;;
70549;SDS011;58101;48.658;2.328;2023-04-15T11:33:02;4.68;;;1.10;;
70549;SDS011;58101;48.658;2.328;2023-04-15T11:35:29;4.30;;;1.15;;
70549;SDS011;58101;48.658;2.328;2023-04-15T11:37:55;4.53;;;1.30;;
70549;SDS011;58101;48.658;2.328;2023-04-15T11:45:35;4.15;;;1.00;;
70549;SDS011;58101;48.658;2.328;2023-04-15T11:50:31;4.65;;;1.10;;
70549;SDS011;58101;48.658;2.328;2023-04-15T11:52:57;4.20;;;1.10;;
70549;SDS011;58101;48.658;2.328;2023-04-15T11:55:24;4.50;;;1.30;;
70549;SDS011;58101;48.658;2.328;2023-04-15T11:58:04;4.38;;;1.40;;
70549;SDS011;58101;48.658;2.328;2023-04-15T12:00:32;4.35;;;1.40;;
70549;SDS011;58101;48.658;2.328;2023-04-15T12:03:15;4.60;;;1.42;;
70549;SDS011;58101;48.658;2.328;2023-04-15T12:11:40;4.90;;;1.55;;
70549;SDS011;58101;48.658;2.328;2023-04-15T12:14:31;5.13;;;1.80;;
70549;SDS011;58101;48.658;2.328;2023-04-15T12:16:58;5.20;;;1.70;;
70549;SDS011;58101;48.658;2.328;2023-04-15T12:19:41;5.30;;;1.80;;
70549;SDS011;58101;48.658;2.328;2023-04-15T12:22:13;5.50;;;1.80;;
70549;SDS011;58101;48.658;2.328;2023-04-15T12:24:40;5.03;;;1.60;;
70549;SDS011;58101;48.658;2.328;2023-04-15T12:29:40;5.68;;;1.80;;
70549;SDS011;58101;48.658;2.328;2023-04-15T12:32:13;5.85;;;2.03;;
70549;SDS011;58101;48.658;2.328;2023-04-15T12:34:47;5.18;;;1.75;;
70549;SDS011;58101;48.658;2.328;2023-04-15T12:37:15;5.63;;;1.83;;
70549;SDS011;58101;48.658;2.328;2023-04-15T12:39:42;5.30;;;2.00;;
70549;SDS011;58101;48.658;2.328;2023-04-15T12:42:09;6.25;;;2.05;;
70549;SDS011;58101;48.658;2.328;2023-04-15T12:44:35;5.35;;;1.85;;
70549;SDS011;58101;48.658;2.328;2023-04-15T12:47:02;14.55;;;4.63;;
70549;SDS011;58101;48.658;2.328;2023-04-15T12:49:28;10.15;;;4.60;;
70549;SDS011;58101;48.658;2.328;2023-04-15T12:51:55;16.85;;;7.97;;
70549;SDS011;58101;48.658;2.328;2023-04-15T12:54:21;14.25;;;6.10;;
70549;SDS011;58101;48.658;2.328;2023-04-15T12:56:48;10.93;;;4.93;;
70549;SDS011;58101;48.658;2.328;2023-04-15T12:59:14;10.45;;;4.75;;
70549;SDS011;58101;48.658;2.328;2023-04-15T13:01:42;12.50;;;6.15;;
70549;SDS011;58101;48.658;2.328;2023-04-15T13:04:09;12.65;;;5.47;;
70549;SDS011;58101;48.658;2.328;2023-04-15T13:06:34;5.90;;;2.20;;
70549;SDS011;58101;48.658;2.328;2023-04-15T13:09:01;6.70;;;3.15;;
70549;SDS011;58101;48.658;2.328;2023-04-15T13:11:27;9.88;;;4.55;;
70549;SDS011;58101;48.658;2.328;2023-04-15T13:13:58;7.22;;;3.85;;
70549;SDS011;58101;48.658;2.328;2023-04-15T13:16:25;5.65;;;2.60;;
70549;SDS011;58101;48.658;2.328;2023-04-15T13:18:51;6.05;;;2.35;;
70549;SDS011;58101;48.658;2.328;2023-04-15T13:21:17;6.43;;;2.75;;
70549;SDS011;58101;48.658;2.328;2023-04-15T13:23:43;7.10;;;3.30;;
70549;SDS011;58101;48.658;2.328;2023-04-15T13:26:09;5.85;;;2.45;;
70549;SDS011;58101;48.658;2.328;2023-04-15T13:28:35;7.03;;;2.90;;
70549;SDS011;58101;48.658;2.328;2023-04-15T13:31:01;5.90;;;2.40;;
70549;SDS011;58101;48.658;2.328;2023-04-15T13:33:26;9.23;;;4.00;;
70549;SDS011;58101;48.658;2.328;2023-04-15T13:35:52;6.55;;;2.90;;
70549;SDS011;58101;48.658;2.328;2023-04-15T13:38:18;5.50;;;1.80;;
70549;SDS011;58101;48.658;2.328;2023-04-15T13:40:43;6.65;;;2.65;;
70549;SDS011;58101;48.658;2.328;2023-04-15T13:43:09;6.80;;;2.53;;
70549;SDS011;58101;48.658;2.328;2023-04-15T13:45:35;9.02;;;3.30;;
70549;SDS011;58101;48.658;2.328;2023-04-15T13:48:01;11.43;;;4.78;;
70549;SDS011;58101;48.658;2.328;2023-04-15T13:50:27;6.07;;;2.30;;
70549;SDS011;58101;48.658;2.328;2023-04-15T13:52:53;4.85;;;1.58;;
70549;SDS011;58101;48.658;2.328;2023-04-15T13:55:18;4.90;;;1.50;;
70549;SDS011;58101;48.658;2.328;2023-04-15T13:57:44;6.53;;;2.03;;
70549;SDS011;58101;48.658;2.328;2023-04-15T14:00:10;5.18;;;2.03;;
70549;SDS011;58101;48.658;2.328;2023-04-15T14:02:38;7.03;;;2.60;;
70549;SDS011;58101;48.658;2.328;2023-04-15T14:05:04;6.80;;;2.75;;
70549;SDS011;58101;48.658;2.328;2023-04-15T14:07:30;6.75;;;2.40;;
70549;SDS011;58101;48.658;2.328;2023-04-15T14:09:56;7.75;;;3.20;;
70549;SDS011;58101;48.658;2.328;2023-04-15T14:12:21;6.00;;;2.10;;
70549;SDS011;58101;48.658;2.328;2023-04-15T14:14:47;10.63;;;5.22;;
70549;SDS011;58101;48.658;2.328;2023-04-15T14:17:12;7.57;;;2.90;;
70549;SDS011;58101;48.658;2.328;2023-04-15T14:19:38;10.57;;;4.00;;
70549;SDS011;58101;48.658;2.328;2023-04-15T14:22:04;6.68;;;2.63;;
70549;SDS011;58101;48.658;2.328;2023-04-15T14:24:30;5.25;;;1.70;;
70549;SDS011;58101;48.658;2.328;2023-04-15T14:26:55;5.60;;;1.67;;
70549;SDS011;58101;48.658;2.328;2023-04-15T14:29:22;6.10;;;2.13;;
70549;SDS011;58101;48.658;2.328;2023-04-15T14:31:48;6.28;;;2.40;;
70549;SDS011;58101;48.658;2.328;2023-04-15T14:34:14;6.22;;;2.38;;
70549;SDS011;58101;48.658;2.328;2023-04-15T14:36:40;7.25;;;2.10;;
70549;SDS011;58101;48.658;2.328;2023-04-15T14:39:06;6.85;;;2.08;;
70549;SDS011;58101;48.658;2.328;2023-04-15T14:41:32;7.47;;;2.58;;
70549;SDS011;58101;48.658;2.328;2023-04-15T14:43:58;7.25;;;2.15;;
70549;SDS011;58101;48.658;2.328;2023-04-15T14:46:24;6.22;;;2.33;;
70549;SDS011;58101;48.658;2.328;2023-04-15T14:48:50;5.85;;;2.00;;
70549;SDS011;58101;48.658;2.328;2023-04-15T14:51:15;6.43;;;1.60;;
70549;SDS011;58101;48.658;2.328;2023-04-15T14:53:41;5.93;;;1.85;;
70549;SDS011;58101;48.658;2.328;2023-04-15T14:56:08;7.28;;;1.80;;
70549;SDS011;58101;48.658;2.328;2023-04-15T14:58:33;6.38;;;2.00;;
70549;SDS011;58101;48.658;2.328;2023-04-15T15:00:59;8.05;;;2.72;;
70549;SDS011;58101;48.658;2.328;2023-04-15T15:03:26;6.45;;;2.00;;
70549;SDS011;58101;48.658;2.328;2023-04-15T15:05:52;6.93;;;2.40;;
70549;SDS011;58101;48.658;2.328;2023-04-15T15:08:19;7.55;;;2.42;;
70549;SDS011;58101;48.658;2.328;2023-04-15T15:10:45;7.63;;;2.00;;
70549;SDS011;58101;48.658;2.328;2023-04-15T15:13:10;6.85;;;2.00;;
70549;SDS011;58101;48.658;2.328;2023-04-15T15:15:36;6.43;;;1.77;;
70549;SDS011;58101;48.658;2.328;2023-04-15T15:18:02;4.80;;;1.52;;
70549;SDS011;58101;48.658;2.328;2023-04-15T15:20:28;6.15;;;1.70;;
70549;SDS011;58101;48.658;2.328;2023-04-15T15:22:55;5.70;;;1.80;;
70549;SDS011;58101;48.658;2.328;2023-04-15T15:25:20;6.40;;;1.70;;
70549;SDS011;58101;48.658;2.328;2023-04-15T15:27:46;5.50;;;1.67;;
70549;SDS011;58101;48.658;2.328;2023-04-15T15:30:12;6.10;;;1.77;;
70549;SDS011;58101;48.658;2.328;2023-04-15T15:32:41;6.00;;;1.63;;
70549;SDS011;58101;48.658;2.328;2023-04-15T15:35:07;5.30;;;1.70;;
70549;SDS011;58101;48.658;2.328;2023-04-15T15:37:34;6.32;;;2.05;;
70549;SDS011;58101;48.658;2.328;2023-04-15T15:40:02;4.95;;;1.50;;